OAL210 LGAV-LIPZ
Flight info
| Callsign | OAL210 |
|---|---|
| Flight time | 1h 58m |
| Altitude | 36000 |
| Route | KOR UL53 IXONI DCT YNN UL611 TUMBO DCT RODON DCT KOFER DCT EBITA DCT PUL DCT LABIN Z122 BASOG |
| Aircraft | B738/M-SDE2E3FGHIRWXY/LB1 |
Departure
| Time | 2026-05-05 13:41 |
|---|---|
| Airport | Athens Eleftherios Venizelos International Airport (LGAV) |
Arrival
| Time | 2026-05-05 15:39 |
|---|---|
| Airport | Venice Marco Polo Airport (LIPZ) |
| Time | Latitude | Longitude | Altitude | Speed | Heading |
|---|---|---|---|---|---|
| 2026-05-05 13:30 | 37.93746 | 23.94978 | 300 ft | 0 kts | 306° |
| 2026-05-05 13:35 | 37.93732 | 23.95004 | 300 ft | 0 kts | 17° |
| 2026-05-05 13:36 | 37.93739 | 23.95009 | 300 ft | 1 kts | 30° |
| 2026-05-05 13:36 | 37.93747 | 23.95016 | 300 ft | 2 kts | 39° |
| 2026-05-05 13:36 | 37.93763 | 23.95057 | 301 ft | 9 kts | 77° |
| 2026-05-05 13:36 | 37.93783 | 23.95129 | 304 ft | 8 kts | 57° |
| 2026-05-05 13:37 | 37.93833 | 23.95184 | 301 ft | 11 kts | 44° |
| 2026-05-05 13:37 | 37.93878 | 23.95291 | 301 ft | 16 kts | 70° |
| 2026-05-05 13:37 | 37.93852 | 23.95434 | 298 ft | 14 kts | 97° |
| 2026-05-05 13:37 | 37.93868 | 23.95484 | 299 ft | 3 kts | 45° |
| 2026-05-05 13:38 | 37.93915 | 23.95534 | 296 ft | 15 kts | 38° |
| 2026-05-05 13:38 | 37.94024 | 23.95635 | 297 ft | 24 kts | 36° |
| 2026-05-05 13:38 | 37.94161 | 23.95767 | 300 ft | 24 kts | 37° |
| 2026-05-05 13:38 | 37.94294 | 23.95893 | 300 ft | 23 kts | 37° |
| 2026-05-05 13:39 | 37.94421 | 23.96013 | 301 ft | 23 kts | 37° |
| 2026-05-05 13:39 | 37.94548 | 23.96134 | 297 ft | 23 kts | 37° |
| 2026-05-05 13:39 | 37.94676 | 23.96254 | 300 ft | 23 kts | 37° |
| 2026-05-05 13:39 | 37.94800 | 23.96373 | 299 ft | 22 kts | 37° |
| 2026-05-05 13:40 | 37.94915 | 23.96481 | 300 ft | 20 kts | 37° |
| 2026-05-05 13:40 | 37.95028 | 23.96588 | 301 ft | 21 kts | 37° |
| 2026-05-05 13:40 | 37.95152 | 23.96706 | 304 ft | 24 kts | 37° |
| 2026-05-05 13:40 | 37.95288 | 23.96847 | 304 ft | 26 kts | 62° |
| 2026-05-05 13:41 | 37.95215 | 23.97013 | 309 ft | 22 kts | 163° |
| 2026-05-05 13:41 | 37.94893 | 23.96743 | 306 ft | 98 kts | 217° |
| 2026-05-05 13:41 | 37.94129 | 23.96035 | 298 ft | 170 kts | 215° |
| 2026-05-05 13:41 | 37.93108 | 23.95096 | 1053 ft | 175 kts | 217° |
| 2026-05-05 13:42 | 37.92257 | 23.94200 | 2437 ft | 150 kts | 229° |
| 2026-05-05 13:42 | 37.91879 | 23.92995 | 2980 ft | 154 kts | 280° |
| 2026-05-05 13:42 | 37.92052 | 23.91628 | 3610 ft | 163 kts | 272° |
| 2026-05-05 13:42 | 37.92052 | 23.90068 | 3965 ft | 194 kts | 273° |
| 2026-05-05 13:43 | 37.92087 | 23.88270 | 4199 ft | 219 kts | 274° |
| 2026-05-05 13:43 | 37.92128 | 23.86246 | 4532 ft | 237 kts | 273° |
| 2026-05-05 13:43 | 37.92173 | 23.84066 | 4863 ft | 259 kts | 273° |
| 2026-05-05 13:43 | 37.92215 | 23.81739 | 5627 ft | 265 kts | 274° |
| 2026-05-05 13:44 | 37.92252 | 23.79405 | 6547 ft | 267 kts | 274° |
| 2026-05-05 13:44 | 37.92286 | 23.77033 | 7355 ft | 270 kts | 274° |
| 2026-05-05 13:44 | 37.92319 | 23.74632 | 8199 ft | 274 kts | 274° |
| 2026-05-05 13:44 | 37.92351 | 23.72184 | 8952 ft | 282 kts | 274° |
| 2026-05-05 13:45 | 37.92382 | 23.69712 | 9787 ft | 285 kts | 274° |
| 2026-05-05 13:45 | 37.92413 | 23.67183 | 10484 ft | 293 kts | 274° |
| 2026-05-05 13:45 | 37.92446 | 23.64496 | 10699 ft | 317 kts | 274° |
| 2026-05-05 13:45 | 37.92483 | 23.61587 | 10891 ft | 341 kts | 274° |
| 2026-05-05 13:46 | 37.92520 | 23.58471 | 11074 ft | 363 kts | 273° |
| 2026-05-05 13:46 | 37.92554 | 23.55201 | 11449 ft | 376 kts | 273° |
| 2026-05-05 13:46 | 37.92587 | 23.51890 | 12094 ft | 381 kts | 273° |
| 2026-05-05 13:46 | 37.92619 | 23.48530 | 12874 ft | 382 kts | 273° |
| 2026-05-05 13:47 | 37.92648 | 23.45135 | 13519 ft | 387 kts | 274° |
| 2026-05-05 13:47 | 37.92678 | 23.41726 | 14151 ft | 392 kts | 274° |
| 2026-05-05 13:47 | 37.92708 | 23.38262 | 14774 ft | 394 kts | 274° |
| 2026-05-05 13:47 | 37.92736 | 23.34775 | 15435 ft | 396 kts | 274° |
| 2026-05-05 13:48 | 37.92764 | 23.31277 | 16093 ft | 398 kts | 274° |
| 2026-05-05 13:48 | 37.92790 | 23.27915 | 16689 ft | 400 kts | 274° |
| 2026-05-05 13:48 | 37.92818 | 23.24375 | 17305 ft | 402 kts | 274° |
| 2026-05-05 13:48 | 37.92844 | 23.20815 | 17900 ft | 405 kts | 274° |
| 2026-05-05 13:49 | 37.92869 | 23.17232 | 18459 ft | 407 kts | 275° |
| 2026-05-05 13:49 | 37.92892 | 23.13628 | 18957 ft | 410 kts | 275° |
| 2026-05-05 13:49 | 37.92914 | 23.10007 | 19472 ft | 411 kts | 274° |
| 2026-05-05 13:49 | 37.92936 | 23.06419 | 20019 ft | 413 kts | 274° |
| 2026-05-05 13:50 | 37.92957 | 23.02781 | 20525 ft | 415 kts | 275° |
| 2026-05-05 13:50 | 37.92979 | 22.99313 | 20990 ft | 416 kts | 275° |
| 2026-05-05 13:50 | 37.93300 | 22.95679 | 21549 ft | 411 kts | 287° |
| 2026-05-05 13:50 | 37.94162 | 22.92243 | 22035 ft | 409 kts | 295° |
| 2026-05-05 13:51 | 37.95412 | 22.89063 | 22467 ft | 408 kts | 305° |
| 2026-05-05 13:51 | 37.97039 | 22.86101 | 22832 ft | 411 kts | 308° |
| 2026-05-05 13:51 | 37.98715 | 22.83149 | 23245 ft | 413 kts | 308° |
| 2026-05-05 13:51 | 38.00348 | 22.80252 | 23686 ft | 415 kts | 307° |
| 2026-05-05 13:52 | 38.01992 | 22.77296 | 24049 ft | 416 kts | 307° |
| 2026-05-05 13:52 | 38.03650 | 22.74285 | 24453 ft | 416 kts | 307° |
| 2026-05-05 13:52 | 38.05309 | 22.71265 | 24801 ft | 417 kts | 307° |
| 2026-05-05 13:52 | 38.06967 | 22.68241 | 25136 ft | 418 kts | 307° |
| 2026-05-05 13:53 | 38.08637 | 22.65199 | 25477 ft | 420 kts | 307° |
| 2026-05-05 13:53 | 38.10312 | 22.62147 | 25822 ft | 421 kts | 307° |
| 2026-05-05 13:53 | 38.11990 | 22.59087 | 26167 ft | 422 kts | 307° |
| 2026-05-05 13:53 | 38.13648 | 22.56057 | 26504 ft | 423 kts | 307° |
| 2026-05-05 13:54 | 38.15329 | 22.52979 | 26818 ft | 425 kts | 307° |
| 2026-05-05 13:54 | 38.17013 | 22.49894 | 27124 ft | 426 kts | 307° |
| 2026-05-05 13:54 | 38.18706 | 22.46786 | 27442 ft | 426 kts | 307° |
| 2026-05-05 13:54 | 38.20390 | 22.43692 | 27887 ft | 423 kts | 307° |
| 2026-05-05 13:55 | 38.22057 | 22.40626 | 28430 ft | 419 kts | 307° |
| 2026-05-05 13:55 | 38.23711 | 22.37581 | 28968 ft | 416 kts | 307° |
| 2026-05-05 13:55 | 38.25330 | 22.34597 | 29436 ft | 414 kts | 307° |
| 2026-05-05 13:55 | 38.26962 | 22.31590 | 29907 ft | 411 kts | 307° |
| 2026-05-05 13:56 | 38.28587 | 22.28593 | 30350 ft | 409 kts | 307° |
| 2026-05-05 13:56 | 38.30211 | 22.25627 | 30710 ft | 407 kts | 309° |
| 2026-05-05 13:56 | 38.32042 | 22.22882 | 30977 ft | 407 kts | 315° |
| 2026-05-05 13:56 | 38.34147 | 22.20464 | 31262 ft | 406 kts | 322° |
| 2026-05-05 13:57 | 38.36376 | 22.18272 | 31595 ft | 405 kts | 323° |
| 2026-05-05 13:57 | 38.38610 | 22.16083 | 31885 ft | 404 kts | 323° |
| 2026-05-05 13:57 | 38.40841 | 22.13892 | 32137 ft | 405 kts | 322° |
| 2026-05-05 13:57 | 38.43043 | 22.11719 | 32441 ft | 404 kts | 322° |
| 2026-05-05 13:58 | 38.45286 | 22.09494 | 32779 ft | 402 kts | 322° |
| 2026-05-05 13:58 | 38.47470 | 22.07320 | 33070 ft | 403 kts | 321° |
| 2026-05-05 13:58 | 38.49680 | 22.05116 | 33366 ft | 403 kts | 321° |
| 2026-05-05 13:58 | 38.51892 | 22.02904 | 33716 ft | 402 kts | 321° |
| 2026-05-05 13:59 | 38.56193 | 21.98596 | 34329 ft | 400 kts | 321° |
| 2026-05-05 13:59 | 38.58379 | 21.96404 | 34559 ft | 399 kts | 321° |
| 2026-05-05 14:00 | 38.62743 | 21.92024 | 34972 ft | 400 kts | 321° |
| 2026-05-05 14:00 | 38.64197 | 21.90564 | 35104 ft | 401 kts | 321° |
| 2026-05-05 14:00 | 38.66391 | 21.88359 | 35297 ft | 402 kts | 321° |
| 2026-05-05 14:00 | 38.68587 | 21.86148 | 35514 ft | 401 kts | 321° |
| 2026-05-05 14:01 | 38.70784 | 21.83937 | 35718 ft | 401 kts | 320° |
| 2026-05-05 14:01 | 38.72982 | 21.81726 | 35922 ft | 401 kts | 320° |
| 2026-05-05 14:01 | 38.75179 | 21.79510 | 36069 ft | 401 kts | 320° |
| 2026-05-05 14:01 | 38.77369 | 21.77297 | 36061 ft | 400 kts | 320° |
| 2026-05-05 14:02 | 38.81708 | 21.72910 | 36102 ft | 400 kts | 320° |
| 2026-05-05 14:02 | 38.86091 | 21.68471 | 36107 ft | 400 kts | 320° |
| 2026-05-05 14:03 | 38.90466 | 21.64036 | 36094 ft | 401 kts | 321° |
| 2026-05-05 14:03 | 38.94821 | 21.59614 | 36080 ft | 400 kts | 321° |
| 2026-05-05 14:04 | 38.99190 | 21.55169 | 36080 ft | 400 kts | 321° |
| 2026-05-05 14:04 | 39.03542 | 21.50735 | 36094 ft | 399 kts | 320° |
| 2026-05-05 14:05 | 39.07885 | 21.46306 | 36086 ft | 399 kts | 320° |
| 2026-05-05 14:05 | 39.12227 | 21.41870 | 36100 ft | 398 kts | 320° |
| 2026-05-05 14:06 | 39.16567 | 21.37424 | 36096 ft | 397 kts | 320° |
| 2026-05-05 14:06 | 39.20862 | 21.33019 | 36096 ft | 397 kts | 320° |
| 2026-05-05 14:07 | 39.25186 | 21.28581 | 36109 ft | 396 kts | 320° |
| 2026-05-05 14:07 | 39.29511 | 21.24130 | 36102 ft | 397 kts | 320° |
| 2026-05-05 14:08 | 39.33825 | 21.19684 | 36101 ft | 396 kts | 320° |
| 2026-05-05 14:08 | 39.38113 | 21.15258 | 36115 ft | 396 kts | 320° |
| 2026-05-05 14:09 | 39.42417 | 21.10807 | 36100 ft | 395 kts | 320° |
| 2026-05-05 14:09 | 39.46701 | 21.06372 | 36099 ft | 394 kts | 320° |
| 2026-05-05 14:10 | 39.50973 | 21.01939 | 36102 ft | 393 kts | 320° |
| 2026-05-05 14:10 | 39.55156 | 20.97593 | 36097 ft | 392 kts | 319° |
| 2026-05-05 14:11 | 39.59387 | 20.93189 | 36099 ft | 392 kts | 320° |
| 2026-05-05 14:11 | 39.63644 | 20.88748 | 36104 ft | 392 kts | 320° |
| 2026-05-05 14:12 | 39.67903 | 20.84302 | 36108 ft | 393 kts | 320° |
| 2026-05-05 14:12 | 39.72179 | 20.79926 | 36087 ft | 393 kts | 321° |
| 2026-05-05 14:13 | 39.76649 | 20.75754 | 36097 ft | 394 kts | 322° |
| 2026-05-05 14:13 | 39.81108 | 20.71613 | 36101 ft | 394 kts | 322° |
| 2026-05-05 14:14 | 39.85562 | 20.67420 | 36096 ft | 394 kts | 322° |
| 2026-05-05 14:14 | 39.89972 | 20.63240 | 36124 ft | 395 kts | 322° |
| 2026-05-05 14:15 | 39.94415 | 20.59019 | 36096 ft | 395 kts | 322° |
| 2026-05-05 14:15 | 39.98860 | 20.54787 | 36086 ft | 395 kts | 321° |
| 2026-05-05 14:16 | 40.03241 | 20.50609 | 36078 ft | 395 kts | 321° |
| 2026-05-05 14:16 | 40.07648 | 20.46404 | 36067 ft | 394 kts | 321° |
| 2026-05-05 14:17 | 40.12081 | 20.42149 | 36079 ft | 395 kts | 321° |
| 2026-05-05 14:17 | 40.16509 | 20.37881 | 36101 ft | 396 kts | 321° |
| 2026-05-05 14:18 | 40.20928 | 20.33614 | 36087 ft | 396 kts | 321° |
| 2026-05-05 14:18 | 40.25359 | 20.29331 | 36088 ft | 396 kts | 321° |
| 2026-05-05 14:19 | 40.29794 | 20.25035 | 36082 ft | 396 kts | 321° |
| 2026-05-05 14:19 | 40.34231 | 20.20728 | 36083 ft | 396 kts | 321° |
| 2026-05-05 14:20 | 40.38628 | 20.16456 | 36091 ft | 396 kts | 320° |
| 2026-05-05 14:20 | 40.43062 | 20.12141 | 36082 ft | 397 kts | 321° |
| 2026-05-05 14:21 | 40.47507 | 20.07806 | 36092 ft | 397 kts | 321° |
| 2026-05-05 14:21 | 40.51951 | 20.03463 | 36098 ft | 397 kts | 321° |
| 2026-05-05 14:22 | 40.56260 | 19.99246 | 36088 ft | 397 kts | 320° |
| 2026-05-05 14:22 | 40.60699 | 19.94896 | 36081 ft | 397 kts | 320° |
| 2026-05-05 14:23 | 40.65135 | 19.90542 | 36091 ft | 397 kts | 320° |
| 2026-05-05 14:23 | 40.69565 | 19.86184 | 36087 ft | 397 kts | 320° |
| 2026-05-05 14:24 | 40.73972 | 19.81843 | 36095 ft | 398 kts | 320° |
| 2026-05-05 14:24 | 40.78420 | 19.77453 | 36085 ft | 399 kts | 320° |
| 2026-05-05 14:25 | 40.82869 | 19.73055 | 36090 ft | 398 kts | 320° |
| 2026-05-05 14:25 | 40.87306 | 19.68659 | 36092 ft | 398 kts | 320° |
| 2026-05-05 14:26 | 40.91713 | 19.64288 | 36101 ft | 398 kts | 320° |
| 2026-05-05 14:26 | 40.96151 | 19.59880 | 36094 ft | 399 kts | 320° |
| 2026-05-05 14:27 | 41.00588 | 19.55464 | 36099 ft | 399 kts | 320° |
| 2026-05-05 14:27 | 41.05029 | 19.51037 | 36089 ft | 399 kts | 320° |
| 2026-05-05 14:28 | 41.09434 | 19.46638 | 36095 ft | 399 kts | 320° |
| 2026-05-05 14:28 | 41.13869 | 19.42199 | 36089 ft | 399 kts | 319° |
| 2026-05-05 14:29 | 41.18303 | 19.37754 | 36092 ft | 399 kts | 319° |
| 2026-05-05 14:29 | 41.22729 | 19.33308 | 36094 ft | 399 kts | 319° |
| 2026-05-05 14:30 | 41.27152 | 19.28859 | 36093 ft | 399 kts | 319° |
| 2026-05-05 14:30 | 41.31553 | 19.24423 | 36092 ft | 399 kts | 319° |
| 2026-05-05 14:31 | 41.35980 | 19.19953 | 36088 ft | 399 kts | 319° |
| 2026-05-05 14:31 | 41.40381 | 19.15500 | 36100 ft | 399 kts | 319° |
| 2026-05-05 14:32 | 41.44810 | 19.11013 | 36082 ft | 400 kts | 319° |
| 2026-05-05 14:32 | 41.49317 | 19.06627 | 36090 ft | 402 kts | 321° |
| 2026-05-05 14:33 | 41.53949 | 19.02425 | 36093 ft | 402 kts | 322° |
| 2026-05-05 14:33 | 41.58495 | 18.98280 | 36086 ft | 402 kts | 321° |
| 2026-05-05 14:34 | 41.63082 | 18.94048 | 36091 ft | 402 kts | 321° |
| 2026-05-05 14:34 | 41.67697 | 18.89762 | 36094 ft | 404 kts | 321° |
| 2026-05-05 14:35 | 41.72315 | 18.85466 | 36090 ft | 405 kts | 321° |
| 2026-05-05 14:35 | 41.76920 | 18.81175 | 36084 ft | 405 kts | 321° |
| 2026-05-05 14:36 | 41.81550 | 18.76852 | 36074 ft | 405 kts | 321° |
| 2026-05-05 14:36 | 41.86179 | 18.72519 | 36088 ft | 405 kts | 321° |
| 2026-05-05 14:37 | 41.90822 | 18.68172 | 36092 ft | 406 kts | 320° |
| 2026-05-05 14:37 | 41.94960 | 18.63184 | 36094 ft | 401 kts | 309° |
| 2026-05-05 14:38 | 41.98694 | 18.57577 | 36089 ft | 403 kts | 309° |
| 2026-05-05 14:38 | 42.02430 | 18.51980 | 36081 ft | 403 kts | 309° |
| 2026-05-05 14:39 | 42.06194 | 18.46353 | 36081 ft | 404 kts | 309° |
| 2026-05-05 14:39 | 42.09960 | 18.40722 | 36078 ft | 404 kts | 309° |
| 2026-05-05 14:40 | 42.13717 | 18.35094 | 36086 ft | 404 kts | 309° |
| 2026-05-05 14:40 | 42.17458 | 18.29481 | 36096 ft | 405 kts | 309° |
| 2026-05-05 14:41 | 42.21237 | 18.23799 | 36098 ft | 406 kts | 309° |
| 2026-05-05 14:41 | 42.25019 | 18.18102 | 36093 ft | 407 kts | 309° |
| 2026-05-05 14:42 | 42.28793 | 18.12405 | 36088 ft | 407 kts | 309° |
| 2026-05-05 14:42 | 42.32544 | 18.06729 | 36095 ft | 407 kts | 309° |
| 2026-05-05 14:43 | 42.36315 | 18.01017 | 36090 ft | 407 kts | 309° |
| 2026-05-05 14:43 | 42.39981 | 17.95454 | 36090 ft | 407 kts | 309° |
| 2026-05-05 14:44 | 42.43750 | 17.89719 | 36086 ft | 407 kts | 309° |
| 2026-05-05 14:44 | 42.47517 | 17.83978 | 36085 ft | 408 kts | 309° |
| 2026-05-05 14:45 | 42.51287 | 17.78219 | 36081 ft | 408 kts | 309° |
| 2026-05-05 14:45 | 42.55043 | 17.72473 | 36077 ft | 408 kts | 309° |
| 2026-05-05 14:46 | 42.58815 | 17.66693 | 36086 ft | 409 kts | 308° |
| 2026-05-05 14:46 | 42.62589 | 17.60896 | 36081 ft | 410 kts | 308° |
| 2026-05-05 14:47 | 42.66333 | 17.55134 | 36081 ft | 409 kts | 308° |
| 2026-05-05 14:47 | 42.70110 | 17.49309 | 36077 ft | 410 kts | 309° |
| 2026-05-05 14:48 | 42.73247 | 17.44460 | 36071 ft | 411 kts | 309° |
| 2026-05-05 14:48 | 42.77028 | 17.38606 | 36067 ft | 412 kts | 308° |
| 2026-05-05 14:49 | 42.80819 | 17.32727 | 36055 ft | 414 kts | 308° |
| 2026-05-05 14:49 | 42.84613 | 17.26831 | 36076 ft | 414 kts | 308° |
| 2026-05-05 14:50 | 42.88404 | 17.20927 | 36057 ft | 414 kts | 308° |
| 2026-05-05 14:50 | 42.92199 | 17.15010 | 36057 ft | 413 kts | 308° |
| 2026-05-05 14:51 | 42.95978 | 17.09097 | 36063 ft | 414 kts | 308° |
| 2026-05-05 14:51 | 42.99762 | 17.03165 | 36051 ft | 414 kts | 308° |
| 2026-05-05 14:52 | 43.03385 | 16.97477 | 36058 ft | 414 kts | 308° |
| 2026-05-05 14:52 | 43.07169 | 16.91522 | 36058 ft | 414 kts | 308° |
| 2026-05-05 14:53 | 43.10952 | 16.85557 | 36059 ft | 415 kts | 308° |
| 2026-05-05 14:53 | 43.14710 | 16.79623 | 36073 ft | 414 kts | 308° |
| 2026-05-05 14:54 | 43.18491 | 16.73643 | 36093 ft | 415 kts | 308° |
| 2026-05-05 14:54 | 43.22270 | 16.67646 | 36068 ft | 416 kts | 308° |
| 2026-05-05 14:55 | 43.26056 | 16.61629 | 36070 ft | 417 kts | 308° |
| 2026-05-05 14:55 | 43.29849 | 16.55590 | 36075 ft | 417 kts | 308° |
| 2026-05-05 14:56 | 43.33634 | 16.49548 | 36068 ft | 418 kts | 308° |
| 2026-05-05 14:56 | 43.37427 | 16.43479 | 36089 ft | 418 kts | 308° |
| 2026-05-05 14:57 | 43.41200 | 16.37432 | 36098 ft | 418 kts | 308° |
| 2026-05-05 14:57 | 43.44988 | 16.31348 | 36114 ft | 418 kts | 308° |
| 2026-05-05 14:58 | 43.48771 | 16.25260 | 36104 ft | 418 kts | 308° |
| 2026-05-05 14:58 | 43.52523 | 16.19206 | 36107 ft | 418 kts | 308° |
| 2026-05-05 14:59 | 43.56298 | 16.13105 | 36103 ft | 418 kts | 308° |
| 2026-05-05 14:59 | 43.60078 | 16.06983 | 36075 ft | 419 kts | 308° |
| 2026-05-05 15:00 | 43.63222 | 16.01883 | 36076 ft | 420 kts | 308° |
| 2026-05-05 15:00 | 43.67566 | 15.94817 | 36078 ft | 420 kts | 308° |
| 2026-05-05 15:01 | 43.71353 | 15.88644 | 36074 ft | 421 kts | 307° |
| 2026-05-05 15:01 | 43.75136 | 15.82467 | 36072 ft | 421 kts | 307° |
| 2026-05-05 15:02 | 43.78917 | 15.76276 | 36079 ft | 421 kts | 307° |
| 2026-05-05 15:02 | 43.82699 | 15.70069 | 36079 ft | 421 kts | 307° |
| 2026-05-05 15:03 | 43.86458 | 15.63886 | 36073 ft | 422 kts | 307° |
| 2026-05-05 15:03 | 43.90249 | 15.57643 | 36078 ft | 423 kts | 307° |
| 2026-05-05 15:04 | 43.94044 | 15.51376 | 36090 ft | 424 kts | 307° |
| 2026-05-05 15:04 | 43.97814 | 15.45137 | 36077 ft | 424 kts | 307° |
| 2026-05-05 15:05 | 44.03482 | 15.35732 | 36077 ft | 424 kts | 307° |
| 2026-05-05 15:06 | 44.07262 | 15.29444 | 36075 ft | 424 kts | 307° |
| 2026-05-05 15:06 | 44.11045 | 15.23133 | 36077 ft | 425 kts | 307° |
| 2026-05-05 15:07 | 44.14839 | 15.16792 | 36074 ft | 426 kts | 307° |
| 2026-05-05 15:07 | 44.18601 | 15.10491 | 36087 ft | 426 kts | 307° |
| 2026-05-05 15:08 | 44.22393 | 15.04123 | 36068 ft | 427 kts | 307° |
| 2026-05-05 15:08 | 44.26124 | 14.97844 | 36063 ft | 427 kts | 307° |
| 2026-05-05 15:09 | 44.29902 | 14.91471 | 36057 ft | 428 kts | 307° |
| 2026-05-05 15:09 | 44.33699 | 14.85048 | 36075 ft | 429 kts | 307° |
| 2026-05-05 15:10 | 44.37495 | 14.78620 | 36061 ft | 429 kts | 306° |
| 2026-05-05 15:10 | 44.41324 | 14.72196 | 36054 ft | 430 kts | 307° |
| 2026-05-05 15:11 | 44.45198 | 14.65799 | 36060 ft | 430 kts | 307° |
| 2026-05-05 15:11 | 44.49065 | 14.59400 | 36046 ft | 430 kts | 307° |
| 2026-05-05 15:12 | 44.52894 | 14.53029 | 36037 ft | 429 kts | 307° |
| 2026-05-05 15:12 | 44.56729 | 14.46627 | 36041 ft | 428 kts | 307° |
| 2026-05-05 15:13 | 44.60553 | 14.40229 | 36027 ft | 428 kts | 307° |
| 2026-05-05 15:13 | 44.64373 | 14.33821 | 36028 ft | 428 kts | 307° |
| 2026-05-05 15:14 | 44.68203 | 14.27381 | 36033 ft | 429 kts | 307° |
| 2026-05-05 15:14 | 44.72027 | 14.20936 | 36023 ft | 430 kts | 307° |
| 2026-05-05 15:15 | 44.75832 | 14.14506 | 36033 ft | 430 kts | 306° |
| 2026-05-05 15:15 | 44.79584 | 14.08137 | 35940 ft | 431 kts | 306° |
| 2026-05-05 15:15 | 44.81513 | 14.04865 | 35396 ft | 432 kts | 306° |
| 2026-05-05 15:16 | 44.83426 | 14.01625 | 34766 ft | 428 kts | 306° |
| 2026-05-05 15:16 | 44.85080 | 13.98819 | 34245 ft | 424 kts | 306° |
| 2026-05-05 15:16 | 44.86900 | 13.95615 | 33528 ft | 420 kts | 301° |
| 2026-05-05 15:16 | 44.88344 | 13.92081 | 32829 ft | 413 kts | 292° |
| 2026-05-05 15:17 | 44.89426 | 13.88341 | 32164 ft | 408 kts | 286° |
| 2026-05-05 15:17 | 44.90124 | 13.84493 | 31477 ft | 402 kts | 278° |
| 2026-05-05 15:17 | 44.90571 | 13.80665 | 30806 ft | 400 kts | 277° |
| 2026-05-05 15:17 | 44.91004 | 13.76766 | 30110 ft | 406 kts | 277° |
| 2026-05-05 15:18 | 44.91446 | 13.72746 | 29248 ft | 425 kts | 277° |
| 2026-05-05 15:18 | 44.91912 | 13.68550 | 28591 ft | 437 kts | 277° |
| 2026-05-05 15:18 | 44.92388 | 13.64339 | 27939 ft | 430 kts | 277° |
| 2026-05-05 15:18 | 44.92858 | 13.60226 | 27370 ft | 419 kts | 277° |
| 2026-05-05 15:19 | 44.93318 | 13.56208 | 26796 ft | 410 kts | 277° |
| 2026-05-05 15:19 | 44.93737 | 13.52552 | 26256 ft | 402 kts | 277° |
| 2026-05-05 15:19 | 44.94177 | 13.48688 | 25715 ft | 395 kts | 277° |
| 2026-05-05 15:19 | 44.94609 | 13.44889 | 25195 ft | 388 kts | 277° |
| 2026-05-05 15:20 | 44.95031 | 13.41152 | 24658 ft | 385 kts | 277° |
| 2026-05-05 15:20 | 44.95454 | 13.37381 | 24134 ft | 395 kts | 277° |
| 2026-05-05 15:20 | 44.95891 | 13.33474 | 23563 ft | 405 kts | 277° |
| 2026-05-05 15:20 | 44.96326 | 13.29593 | 22913 ft | 397 kts | 277° |
| 2026-05-05 15:21 | 44.96752 | 13.25787 | 22348 ft | 387 kts | 277° |
| 2026-05-05 15:21 | 44.97166 | 13.22079 | 21802 ft | 378 kts | 277° |
| 2026-05-05 15:21 | 44.97571 | 13.18443 | 21278 ft | 371 kts | 276° |
| 2026-05-05 15:21 | 44.97967 | 13.14871 | 20754 ft | 365 kts | 276° |
| 2026-05-05 15:22 | 44.98350 | 13.11397 | 20247 ft | 360 kts | 276° |
| 2026-05-05 15:22 | 44.98842 | 13.07916 | 19727 ft | 366 kts | 283° |
| 2026-05-05 15:22 | 44.99659 | 13.04417 | 19176 ft | 381 kts | 286° |
| 2026-05-05 15:22 | 45.00531 | 13.00978 | 18643 ft | 380 kts | 287° |
| 2026-05-05 15:23 | 45.01394 | 12.97621 | 18109 ft | 373 kts | 287° |
| 2026-05-05 15:23 | 45.02268 | 12.94204 | 17522 ft | 365 kts | 287° |
| 2026-05-05 15:23 | 45.03115 | 12.90850 | 17002 ft | 357 kts | 287° |
| 2026-05-05 15:23 | 45.03923 | 12.87614 | 16511 ft | 350 kts | 286° |
| 2026-05-05 15:24 | 45.04737 | 12.84336 | 15865 ft | 349 kts | 286° |
| 2026-05-05 15:24 | 45.05467 | 12.81376 | 15580 ft | 340 kts | 286° |
| 2026-05-05 15:24 | 45.06240 | 12.78227 | 15117 ft | 337 kts | 286° |
| 2026-05-05 15:24 | 45.07013 | 12.75081 | 14656 ft | 342 kts | 286° |
| 2026-05-05 15:25 | 45.07807 | 12.71829 | 14174 ft | 355 kts | 286° |
| 2026-05-05 15:25 | 45.08616 | 12.68516 | 13631 ft | 355 kts | 286° |
| 2026-05-05 15:25 | 45.09419 | 12.65237 | 13068 ft | 348 kts | 286° |
| 2026-05-05 15:25 | 45.10207 | 12.62025 | 12548 ft | 341 kts | 286° |
| 2026-05-05 15:26 | 45.10963 | 12.58929 | 12401 ft | 324 kts | 286° |
| 2026-05-05 15:26 | 45.11683 | 12.55975 | 12248 ft | 309 kts | 286° |
| 2026-05-05 15:26 | 45.12358 | 12.53196 | 12127 ft | 297 kts | 286° |
| 2026-05-05 15:26 | 45.13031 | 12.50426 | 12011 ft | 290 kts | 286° |
| 2026-05-05 15:27 | 45.13698 | 12.47731 | 11827 ft | 293 kts | 287° |
| 2026-05-05 15:27 | 45.14406 | 12.45012 | 11640 ft | 301 kts | 287° |
| 2026-05-05 15:27 | 45.15143 | 12.42207 | 11421 ft | 305 kts | 287° |
| 2026-05-05 15:27 | 45.15884 | 12.39393 | 11194 ft | 303 kts | 287° |
| 2026-05-05 15:28 | 45.16615 | 12.36606 | 10978 ft | 301 kts | 287° |
| 2026-05-05 15:28 | 45.17338 | 12.33838 | 10764 ft | 298 kts | 287° |
| 2026-05-05 15:28 | 45.18047 | 12.31120 | 10541 ft | 289 kts | 287° |
| 2026-05-05 15:28 | 45.18729 | 12.28487 | 10329 ft | 279 kts | 287° |
| 2026-05-05 15:29 | 45.19294 | 12.25915 | 10117 ft | 267 kts | 275° |
| 2026-05-05 15:29 | 45.19254 | 12.23385 | 9953 ft | 256 kts | 264° |
| 2026-05-05 15:29 | 45.19109 | 12.20866 | 9752 ft | 251 kts | 264° |
| 2026-05-05 15:29 | 45.18975 | 12.18436 | 9571 ft | 249 kts | 264° |
| 2026-05-05 15:30 | 45.18703 | 12.16026 | 9287 ft | 251 kts | 247° |
| 2026-05-05 15:30 | 45.17892 | 12.13820 | 9086 ft | 252 kts | 244° |
| 2026-05-05 15:30 | 45.17502 | 12.11425 | 8819 ft | 250 kts | 270° |
| 2026-05-05 15:30 | 45.17571 | 12.08975 | 8408 ft | 247 kts | 270° |
| 2026-05-05 15:31 | 45.17625 | 12.06564 | 8043 ft | 243 kts | 270° |
| 2026-05-05 15:31 | 45.17676 | 12.04230 | 7771 ft | 236 kts | 272° |
| 2026-05-05 15:31 | 45.18146 | 12.02039 | 7507 ft | 234 kts | 299° |
| 2026-05-05 15:31 | 45.19280 | 12.00407 | 7276 ft | 235 kts | 323° |
| 2026-05-05 15:32 | 45.20740 | 11.99649 | 6993 ft | 239 kts | 349° |
| 2026-05-05 15:32 | 45.22388 | 11.99994 | 6639 ft | 247 kts | 24° |
| 2026-05-05 15:32 | 45.23849 | 12.01292 | 6300 ft | 247 kts | 31° |
| 2026-05-05 15:32 | 45.25249 | 12.02706 | 5963 ft | 246 kts | 36° |
| 2026-05-05 15:33 | 45.26558 | 12.04244 | 5642 ft | 244 kts | 39° |
| 2026-05-05 15:33 | 45.27823 | 12.05845 | 5318 ft | 242 kts | 40° |
| 2026-05-05 15:33 | 45.29060 | 12.07443 | 5010 ft | 239 kts | 41° |
| 2026-05-05 15:33 | 45.30285 | 12.09033 | 4684 ft | 238 kts | 41° |
| 2026-05-05 15:34 | 45.31512 | 12.10623 | 4322 ft | 240 kts | 41° |
| 2026-05-05 15:34 | 45.32736 | 12.12202 | 4093 ft | 234 kts | 42° |
| 2026-05-05 15:34 | 45.33917 | 12.13735 | 3841 ft | 225 kts | 42° |
| 2026-05-05 15:34 | 45.35052 | 12.15209 | 3612 ft | 217 kts | 42° |
| 2026-05-05 15:35 | 45.35781 | 12.16153 | 3546 ft | 209 kts | 42° |
| 2026-05-05 15:35 | 45.36851 | 12.17533 | 3347 ft | 209 kts | 41° |
| 2026-05-05 15:35 | 45.38294 | 12.19387 | 2987 ft | 207 kts | 43° |
| 2026-05-05 15:35 | 45.39328 | 12.20734 | 2735 ft | 201 kts | 43° |
| 2026-05-05 15:36 | 45.40019 | 12.21630 | 2564 ft | 197 kts | 43° |
| 2026-05-05 15:36 | 45.41009 | 12.22908 | 2312 ft | 186 kts | 43° |
| 2026-05-05 15:36 | 45.41890 | 12.24043 | 2060 ft | 171 kts | 43° |
| 2026-05-05 15:36 | 45.42719 | 12.25115 | 1835 ft | 153 kts | 45° |
| 2026-05-05 15:37 | 45.43502 | 12.26130 | 1648 ft | 149 kts | 45° |
| 2026-05-05 15:37 | 45.44269 | 12.27120 | 1446 ft | 152 kts | 46° |
| 2026-05-05 15:37 | 45.45046 | 12.28123 | 1239 ft | 150 kts | 44° |
| 2026-05-05 15:37 | 45.45815 | 12.29113 | 1038 ft | 148 kts | 44° |
| 2026-05-05 15:38 | 45.46572 | 12.30090 | 838 ft | 145 kts | 44° |
| 2026-05-05 15:38 | 45.47309 | 12.31047 | 571 ft | 143 kts | 45° |
| 2026-05-05 15:38 | 45.48037 | 12.31992 | 398 ft | 143 kts | 45° |
| 2026-05-05 15:38 | 45.48771 | 12.32944 | 239 ft | 143 kts | 45° |
| 2026-05-05 15:39 | 45.49503 | 12.33893 | 61 ft | 142 kts | 43° |
| 2026-05-05 15:39 | 45.50191 | 12.34774 | 13 ft | 115 kts | 41° |
| 2026-05-05 15:39 | 45.50621 | 12.35309 | 13 ft | 58 kts | 34° |
| 2026-05-05 15:39 | 45.50901 | 12.35435 | 15 ft | 34 kts | 346° |
| 2026-05-05 15:40 | 45.50925 | 12.35178 | 19 ft | 29 kts | 233° |
| 2026-05-05 15:40 | 45.50780 | 12.34976 | 14 ft | 31 kts | 220° |
| 2026-05-05 15:40 | 45.50616 | 12.34767 | 13 ft | 33 kts | 222° |
| 2026-05-05 15:40 | 45.50445 | 12.34546 | 16 ft | 34 kts | 222° |
| 2026-05-05 15:41 | 45.50333 | 12.34286 | 19 ft | 27 kts | 236° |
| 2026-05-05 15:41 | 45.50317 | 12.34152 | 17 ft | 0 kts | 288° |